Time;durP1;ratioP1;P1;durP2;ratioP2;P2;SDS_P1;SDS_P2;PMS_P1;PMS_P2;Temp;Humidity;BMP_temperature;BMP_pressure;BME280_temperature;BME280_humidity;BME280_pressure;Samples;Min_cycle;Max_cycle;Signal;HPM_P1;HPM_P2
2021/10/03 00:02:11;;;;;;;2.45;1.48;;;;;;;22.85;46.38;99453.50;4988764;28;20112;-75
2021/10/03 00:04:40;;;;;;;2.58;1.52;;;;;;;22.86;46.17;99449.69;4972386;28;20121;-75
2021/10/03 00:07:08;;;;;;;3.00;1.73;;;;;;;22.87;46.08;99454.16;4990218;28;20116;-75
2021/10/03 00:09:36;;;;;;;2.70;1.50;;;;;;;22.87;45.76;99450.53;4990025;28;20109;-75
2021/10/03 00:12:03;;;;;;;2.90;1.40;;;;;;;22.86;45.67;99448.81;4990939;28;20046;-75
2021/10/03 00:14:30;;;;;;;3.75;1.60;;;;;;;22.88;46.15;99453.09;4989913;28;20046;-75
2021/10/03 00:16:56;;;;;;;2.83;1.73;;;;;;;22.90;46.26;99450.06;4990035;28;20046;-75
2021/10/03 00:19:23;;;;;;;2.20;1.30;;;;;;;22.89;46.27;99471.41;4989716;28;20116;-75
2021/10/03 00:21:51;;;;;;;2.28;1.45;;;;;;;22.92;45.66;99457.09;4990446;28;20080;-75
2021/10/03 00:24:17;;;;;;;2.38;1.50;;;;;;;22.90;46.23;99456.47;4990311;28;20082;-75
2021/10/03 00:26:44;;;;;;;2.20;1.30;;;;;;;22.92;46.12;99454.34;4990113;28;20054;-75
2021/10/03 00:29:11;;;;;;;2.72;1.60;;;;;;;22.93;46.27;99469.03;4989361;28;20141;-75
2021/10/03 00:31:37;;;;;;;2.45;1.52;;;;;;;22.93;46.10;99467.13;4990669;28;20453;-75
2021/10/03 00:34:04;;;;;;;2.70;1.48;;;;;;;22.96;46.11;99465.84;4985826;28;20054;-74
2021/10/03 00:36:31;;;;;;;2.85;1.38;;;;;;;22.97;45.68;99467.56;4990248;28;20405;-75
2021/10/03 00:38:57;;;;;;;2.63;1.50;;;;;;;22.97;46.03;99462.88;4984518;28;20133;-75
2021/10/03 00:41:24;;;;;;;3.45;1.40;;;;;;;22.98;45.95;99472.84;4989928;28;20074;-75
2021/10/03 00:43:51;;;;;;;2.50;1.30;;;;;;;22.98;45.79;99459.00;4989948;28;20042;-75
2021/10/03 00:46:17;;;;;;;2.45;1.40;;;;;;;23.00;45.94;99461.56;4988186;28;20078;-75
2021/10/03 00:48:44;;;;;;;2.55;1.30;;;;;;;23.00;45.79;99453.25;4990259;28;20054;-75
2021/10/03 00:51:11;;;;;;;2.33;1.30;;;;;;;23.00;45.65;99453.25;4990050;28;20146;-75
2021/10/03 00:53:37;;;;;;;2.45;1.30;;;;;;;23.01;45.92;99458.59;4994435;28;20093;-75
2021/10/03 00:56:07;;;;;;;2.67;1.42;;;;;;;23.02;45.54;99456.66;4992922;28;20046;-76
2021/10/03 00:58:34;;;;;;;2.85;1.55;;;;;;;23.03;45.66;99456.47;4994135;28;20081;-75
2021/10/03 01:01:01;;;;;;;3.33;1.42;;;;;;;23.06;45.56;99466.25;4993158;28;20474;-75
2021/10/03 01:03:28;;;;;;;2.08;1.10;;;;;;;23.05;45.33;99465.41;4994229;28;20046;-75
2021/10/03 01:05:55;;;;;;;2.25;1.27;;;;;;;23.07;45.61;99456.84;4993076;28;20062;-75
2021/10/03 01:08:22;;;;;;;2.00;1.10;;;;;;;23.08;45.54;99458.56;4994002;28;20143;-75
2021/10/03 01:10:48;;;;;;;2.35;1.30;;;;;;;23.09;45.30;99463.88;4993059;28;20701;-75
2021/10/03 01:13:16;;;;;;;4.13;1.40;;;;;;;23.09;45.68;99461.13;4993690;28;20077;-75
2021/10/03 01:15:46;;;;;;;2.60;1.38;;;;;;;23.13;45.12;99458.78;4986068;28;20545;-75
2021/10/03 01:18:14;;;;;;;2.92;1.40;;;;;;;23.12;45.21;99465.38;4993746;28;20054;-75
2021/10/03 01:20:41;;;;;;;3.13;1.48;;;;;;;23.12;45.61;99470.91;4992231;28;20054;-75
2021/10/03 01:23:08;;;;;;;2.92;1.48;;;;;;;23.13;45.44;99472.63;4994016;28;20085;-75
2021/10/03 01:25:38;;;;;;;3.63;1.67;;;;;;;23.15;45.53;99473.22;4992713;28;20125;-75
2021/10/03 01:28:06;;;;;;;2.47;1.60;;;;;;;23.15;45.04;99473.22;4993876;28;20133;-75
2021/10/03 01:30:35;;;;;;;2.97;1.50;;;;;;;23.18;45.41;99469.19;4990194;28;20120;-75
2021/10/03 01:33:02;;;;;;;2.83;1.50;;;;;;;23.15;45.26;99464.91;4992478;28;20054;-75
2021/10/03 01:35:29;;;;;;;2.88;1.52;;;;;;;23.15;45.14;99464.91;5002057;28;20058;-75
2021/10/03 01:37:56;;;;;;;2.17;1.35;;;;;;;23.14;45.11;99480.69;4993140;28;20092;-75
2021/10/03 01:40:23;;;;;;;2.60;1.40;;;;;;;23.15;45.07;99465.78;4992672;28;20105;-74
2021/10/03 01:42:52;;;;;;;3.53;1.65;;;;;;;23.15;45.11;99464.91;4993540;28;20560;-74
2021/10/03 01:45:22;;;;;;;5.07;1.50;;;;;;;23.18;44.64;99466.41;4991794;28;20567;-75
2021/10/03 01:48:02;;;;;;;2.33;1.33;;;;;;;23.17;44.72;99459.16;4982249;28;20046;-76
2021/10/03 01:50:29;;;;;;;2.55;1.48;;;;;;;23.13;45.03;99456.00;4988271;28;20422;-75
2021/10/03 01:52:56;;;;;;;2.60;1.30;;;;;;;23.13;44.91;99454.09;4975369;28;20042;-75
2021/10/03 01:55:23;;;;;;;3.00;1.40;;;;;;;23.13;45.04;99451.31;4991972;28;20058;-75
2021/10/03 01:57:49;;;;;;;2.58;1.40;;;;;;;23.11;44.49;99450.69;4972937;28;20146;-75
2021/10/03 02:00:16;;;;;;;3.50;1.30;;;;;;;23.13;44.67;99442.16;4990623;28;20062;-75
2021/10/03 02:02:45;;;;;;;3.13;1.40;;;;;;;23.12;44.69;99444.09;4992229;28;20109;-75
2021/10/03 02:05:12;;;;;;;2.47;1.50;;;;;;;23.11;44.95;99439.59;4991866;28;20133;-75
2021/10/03 02:07:39;;;;;;;2.03;1.38;;;;;;;23.10;44.70;99429.59;4991626;28;20082;-75
2021/10/03 02:10:06;;;;;;;2.63;1.40;;;;;;;23.11;45.20;99441.53;4991433;28;20474;-75
2021/10/03 02:12:32;;;;;;;2.72;1.30;;;;;;;23.09;44.82;99438.13;4991495;28;20082;-75
2021/10/03 02:14:59;;;;;;;2.95;1.42;;;;;;;23.07;44.78;99435.56;4991253;28;20465;-76
2021/10/03 02:17:25;;;;;;;3.00;1.30;;;;;;;23.07;44.97;99434.72;4992383;28;20129;-75
2021/10/03 02:19:52;;;;;;;2.58;1.40;;;;;;;23.07;45.25;99429.16;4988651;28;20156;-75
2021/10/03 02:22:19;;;;;;;3.05;1.48;;;;;;;23.07;45.07;99437.47;4992833;28;20089;-75
2021/10/03 02:24:46;;;;;;;2.72;1.30;;;;;;;23.06;44.88;99425.53;4974480;28;20133;-75
2021/10/03 02:27:12;;;;;;;2.58;1.40;;;;;;;23.06;45.01;99427.50;4992386;28;20145;-75
2021/10/03 02:29:39;;;;;;;2.28;1.20;;;;;;;23.04;44.59;99413.00;4990455;28;20108;-75
2021/10/03 02:32:06;;;;;;;3.10;1.42;;;;;;;23.03;44.76;99417.69;4988957;28;20642;-75
2021/10/03 02:34:32;;;;;;;2.20;1.48;;;;;;;23.01;44.54;99407.91;4991566;28;20511;-75
2021/10/03 02:36:59;;;;;;;3.47;1.50;;;;;;;23.01;44.96;99413.44;4992243;28;20073;-75
2021/10/03 02:39:26;;;;;;;3.10;1.50;;;;;;;22.99;44.46;99412.78;4991065;28;20141;-75
2021/10/03 02:41:52;;;;;;;2.40;1.20;;;;;;;22.97;44.80;99401.97;4989875;28;20186;-75
2021/10/03 02:44:19;;;;;;;3.50;1.60;;;;;;;22.95;44.94;99404.09;4991206;28;20089;-75
2021/10/03 02:46:45;;;;;;;3.15;1.50;;;;;;;22.94;44.83;99393.25;4991520;28;20073;-75
2021/10/03 02:49:12;;;;;;;2.63;1.40;;;;;;;22.93;44.74;99405.38;4990965;28;20057;-75
2021/10/03 02:51:39;;;;;;;2.83;1.40;;;;;;;22.91;44.68;99400.03;4976737;28;20386;-75
2021/10/03 02:54:05;;;;;;;3.38;1.70;;;;;;;22.90;44.44;99390.03;4991575;28;20437;-75
2021/10/03 02:56:32;;;;;;;2.58;1.50;;;;;;;22.88;44.51;99397.75;4991961;28;20139;-75
2021/10/03 02:58:59;;;;;;;3.05;1.65;;;;;;;22.88;44.79;99396.88;4986500;28;20085;-75
2021/10/03 03:01:25;;;;;;;3.38;1.60;;;;;;;22.87;44.99;99384.09;4992344;28;20669;-75
2021/10/03 03:03:52;;;;;;;3.75;1.70;;;;;;;22.86;44.73;99404.53;4993552;28;20061;-75
2021/10/03 03:06:19;;;;;;;3.72;1.90;;;;;;;22.85;44.80;99403.69;4990173;28;20516;-75
2021/10/03 03:08:46;;;;;;;3.33;2.03;;;;;;;22.83;44.71;99382.81;4991912;28;20043;-75
2021/10/03 03:11:13;;;;;;;3.42;1.67;;;;;;;22.83;44.84;99393.91;4987184;28;20453;-75
2021/10/03 03:13:41;;;;;;;2.95;1.63;;;;;;;22.82;45.05;99383.88;4992400;28;20104;-75
2021/10/03 03:16:07;;;;;;;3.88;1.95;;;;;;;22.79;44.99;99381.56;4989618;28;20058;-75
2021/10/03 03:18:34;;;;;;;3.70;1.80;;;;;;;22.79;45.33;99370.50;4992120;28;20438;-75
2021/10/03 03:21:01;;;;;;;2.78;1.63;;;;;;;22.77;45.31;99367.94;4990925;28;20058;-75
2021/10/03 03:23:27;;;;;;;2.83;1.70;;;;;;;22.75;45.29;99362.63;4990786;28;20448;-75
2021/10/03 03:25:54;;;;;;;3.50;2.05;;;;;;;22.74;45.04;99357.31;4985958;28;20055;-75
2021/10/03 03:28:21;;;;;;;3.58;2.00;;;;;;;22.72;45.03;99365.81;4989863;28;20077;-75
2021/10/03 03:30:47;;;;;;;4.20;2.05;;;;;;;22.70;45.25;99351.34;4990470;28;20074;-75
2021/10/03 03:33:15;;;;;;;3.50;2.00;;;;;;;22.69;45.15;99351.56;4989399;28;20050;-75
2021/10/03 03:35:43;;;;;;;3.80;2.17;;;;;;;22.67;44.70;99368.38;4989867;28;20065;-75
2021/10/03 03:38:10;;;;;;;3.60;2.15;;;;;;;22.66;44.79;99363.91;4991450;28;20524;-75
2021/10/03 03:40:37;;;;;;;3.58;2.15;;;;;;;22.64;44.96;99352.22;4986847;28;20089;-75
2021/10/03 03:43:04;;;;;;;4.32;1.98;;;;;;;22.64;44.66;99360.53;4990810;28;20104;-75
2021/10/03 03:45:30;;;;;;;4.78;2.03;;;;;;;22.62;44.61;99347.97;4972362;28;20553;-75
2021/10/03 03:48:01;;;;;;;3.17;2.15;;;;;;;22.62;44.44;99351.56;4990500;28;20050;-75
2021/10/03 03:50:29;;;;;;;4.53;2.08;;;;;;;22.62;44.52;99347.97;4989438;28;20053;-75
2021/10/03 03:52:57;;;;;;;3.70;2.10;;;;;;;22.60;44.91;99350.94;4984160;28;20089;-75
2021/10/03 03:55:23;;;;;;;3.70;1.98;;;;;;;22.59;44.87;99349.22;4989979;28;20117;-75
2021/10/03 03:57:51;;;;;;;3.95;2.30;;;;;;;22.61;44.55;99351.78;4990291;28;20493;-75
2021/10/03 04:00:19;;;;;;;2.85;1.90;;;;;;;22.58;44.25;99353.06;4966215;28;20069;-74
2021/10/03 04:02:46;;;;;;;4.55;2.58;;;;;;;22.58;44.26;99350.28;4991137;28;20153;-75
2021/10/03 04:05:13;;;;;;;3.72;2.08;;;;;;;22.57;44.67;99343.06;4989768;28;20050;-75
2021/10/03 04:07:40;;;;;;;4.13;2.20;;;;;;;22.57;44.72;99340.28;4990510;28;20073;-75
2021/10/03 04:10:06;;;;;;;3.75;2.28;;;;;;;22.58;44.55;99342.00;4987398;28;20464;-75
2021/10/03 04:12:33;;;;;;;4.18;2.30;;;;;;;22.59;44.33;99343.69;4991014;28;20096;-75
2021/10/03 04:15:00;;;;;;;4.13;2.60;;;;;;;22.58;44.57;99352.22;4989803;28;20133;-75
2021/10/03 04:17:26;;;;;;;3.78;2.20;;;;;;;22.60;44.71;99353.69;4990322;28;20135;-75
2021/10/03 04:19:53;;;;;;;5.38;2.50;;;;;;;22.61;44.63;99349.88;4987127;28;20085;-75
2021/10/03 04:22:19;;;;;;;4.03;2.60;;;;;;;22.62;43.92;99337.75;4988948;28;20054;-75
2021/10/03 04:24:46;;;;;;;3.55;2.33;;;;;;;22.64;44.06;99356.91;4989733;28;20082;-75
2021/10/03 04:27:12;;;;;;;5.30;2.38;;;;;;;22.65;44.35;99336.44;4990435;28;20155;-75
2021/10/03 04:29:39;;;;;;;4.30;2.63;;;;;;;22.66;44.38;99350.06;4989737;28;20046;-75
2021/10/03 04:32:06;;;;;;;4.10;2.53;;;;;;;22.68;43.90;99352.63;4990874;28;20101;-75
2021/10/03 04:34:32;;;;;;;4.85;2.85;;;;;;;22.68;44.02;99347.09;4970153;28;20488;-75
2021/10/03 04:36:59;;;;;;;4.45;2.53;;;;;;;22.70;44.14;99340.28;4989116;28;20038;-75
2021/10/03 04:39:26;;;;;;;4.40;2.58;;;;;;;22.72;43.66;99340.06;4988625;28;21764;-74
2021/10/03 04:41:53;;;;;;;4.53;2.53;;;;;;;22.74;43.64;99330.50;4990265;28;20086;-75
2021/10/03 04:44:19;;;;;;;6.07;2.78;;;;;;;22.75;43.61;99332.19;4988105;28;20046;-75
2021/10/03 04:46:46;;;;;;;6.07;2.92;;;;;;;22.78;43.85;99333.69;4990042;28;20050;-75
2021/10/03 04:49:13;;;;;;;4.38;2.80;;;;;;;22.80;44.06;99323.25;4989229;28;20125;-74
2021/10/03 04:51:39;;;;;;;4.45;2.90;;;;;;;22.81;43.73;99327.72;4986173;28;20070;-75
2021/10/03 04:54:06;;;;;;;6.60;3.40;;;;;;;22.82;43.66;99332.16;4989289;28;20074;-75
2021/10/03 04:56:32;;;;;;;4.47;2.72;;;;;;;22.84;43.64;99330.03;4988420;28;20129;-75
2021/10/03 04:58:59;;;;;;;4.70;2.92;;;;;;;22.86;43.54;99332.59;4987541;28;20135;-75
2021/10/03 05:01:25;;;;;;;4.47;2.92;;;;;;;22.88;43.43;99336.84;4990446;28;20089;-74
2021/10/03 05:03:52;;;;;;;5.60;3.17;;;;;;;22.90;43.08;99323.63;4992068;28;20069;-75
2021/10/03 05:06:19;;;;;;;4.93;2.80;;;;;;;22.91;43.37;99333.63;4986311;28;20054;-75
2021/10/03 05:08:45;;;;;;;4.85;2.78;;;;;;;22.93;43.13;99320.41;4989274;28;20140;-75
2021/10/03 05:11:12;;;;;;;4.80;2.55;;;;;;;22.96;43.23;99313.59;4990143;28;20058;-75
2021/10/03 05:13:39;;;;;;;4.60;2.67;;;;;;;22.99;42.84;99322.31;4991024;28;20047;-75
2021/10/03 05:16:06;;;;;;;5.60;2.80;;;;;;;23.01;42.71;99320.16;4971471;28;20050;-75
2021/10/03 05:18:36;;;;;;;5.60;3.00;;;;;;;23.04;43.05;99316.97;4982587;28;20042;-75
2021/10/03 05:21:06;;;;;;;4.78;3.13;;;;;;;23.08;42.93;99298.84;4989175;28;20086;-75
2021/10/03 05:23:34;;;;;;;4.30;2.63;;;;;;;23.09;42.67;99310.75;4990499;28;20046;-75
2021/10/03 05:26:00;;;;;;;4.65;2.78;;;;;;;23.10;42.95;99301.38;4989234;28;20054;-75
2021/10/03 05:28:27;;;;;;;4.30;2.75;;;;;;;23.14;43.27;99299.88;4985914;28;20117;-75
2021/10/03 05:30:54;;;;;;;4.32;2.80;;;;;;;23.14;43.21;99297.13;4972631;28;20466;-75
2021/10/03 05:33:21;;;;;;;3.97;2.60;;;;;;;23.17;43.11;99313.28;4987612;28;20478;-75
2021/10/03 05:35:48;;;;;;;6.40;2.83;;;;;;;23.21;43.20;99309.00;4987882;28;20054;-75
2021/10/03 05:38:14;;;;;;;5.43;3.08;;;;;;;23.24;43.39;99310.47;4990050;28;20050;-74
2021/10/03 05:40:41;;;;;;;4.78;3.00;;;;;;;23.26;43.48;99313.88;4992971;28;20038;-75
2021/10/03 05:43:07;;;;;;;3.95;2.47;;;;;;;23.26;43.36;99311.09;4994096;28;20120;-75
2021/10/03 05:45:34;;;;;;;5.97;2.95;;;;;;;23.27;43.52;99310.88;5001518;28;20069;-74
2021/10/03 05:48:00;;;;;;;5.07;2.92;;;;;;;23.29;43.51;99310.66;4993507;28;20053;-75
2021/10/03 05:50:27;;;;;;;4.82;2.80;;;;;;;23.30;43.44;99309.59;4991968;28;20497;-75
2021/10/03 05:52:54;;;;;;;4.10;2.75;;;;;;;23.30;43.47;99313.22;4998034;28;20125;-74
2021/10/03 05:55:20;;;;;;;3.95;2.75;;;;;;;23.31;43.47;99320.44;4992160;28;20149;-74
2021/10/03 05:57:47;;;;;;;4.97;2.83;;;;;;;23.32;43.62;99312.97;4991573;28;20141;-74
2021/10/03 06:00:14;;;;;;;5.28;3.20;;;;;;;23.33;43.69;99320.22;4991903;28;20077;-73
2021/10/03 06:02:41;;;;;;;6.30;2.70;;;;;;;23.33;43.43;99309.97;4992944;28;20116;-74
2021/10/03 06:05:08;;;;;;;5.82;3.08;;;;;;;23.34;43.77;99313.59;4974882;28;20046;-73
2021/10/03 06:07:35;;;;;;;5.10;2.60;;;;;;;23.35;43.56;99305.06;4992846;28;20078;-73
2021/10/03 06:10:03;;;;;;;4.93;2.80;;;;;;;23.37;43.43;99321.47;4972978;28;20493;-73
2021/10/03 06:12:29;;;;;;;4.50;2.78;;;;;;;23.37;43.59;99318.72;4975191;28;20501;-73
2021/10/03 06:14:56;;;;;;;4.40;2.58;;;;;;;23.38;44.19;99314.88;4995306;28;20117;-73
2021/10/03 06:17:22;;;;;;;5.10;2.80;;;;;;;23.38;43.61;99309.34;4992664;28;20509;-74
2021/10/03 06:19:49;;;;;;;4.30;2.80;;;;;;;23.38;43.28;99315.72;4992072;28;20563;-74
2021/10/03 06:22:20;;;;;;;4.90;2.70;;;;;;;23.38;43.33;99310.19;4993362;28;20133;-73
2021/10/03 06:24:47;;;;;;;5.13;2.88;;;;;;;23.37;43.40;99316.78;4973080;28;20074;-73
2021/10/03 06:27:14;;;;;;;4.15;2.72;;;;;;;23.39;43.73;99306.31;4991973;28;20050;-73
2021/10/03 06:29:40;;;;;;;6.32;3.10;;;;;;;23.38;43.55;99310.19;4988137;28;20058;-74
2021/10/03 06:32:07;;;;;;;6.38;3.00;;;;;;;23.38;43.38;99326.81;4991764;28;20105;-73
2021/10/03 06:34:34;;;;;;;5.45;2.67;;;;;;;23.37;43.65;99316.78;4988186;28;20141;-74
2021/10/03 06:37:01;;;;;;;5.15;3.00;;;;;;;23.37;43.40;99315.94;4991532;28;20050;-71
2021/10/03 06:39:27;;;;;;;4.25;2.70;;;;;;;23.38;43.13;99320.41;4986020;28;20161;-72
2021/10/03 06:41:54;;;;;;;4.97;2.70;;;;;;;23.35;43.58;99324.47;4992407;28;20133;-71
2021/10/03 06:44:20;;;;;;;4.60;2.85;;;;;;;23.35;43.88;99343.00;4988082;28;20137;-71
2021/10/03 06:46:47;;;;;;;5.25;3.03;;;;;;;23.36;43.54;99330.84;4991090;28;20445;-73
2021/10/03 06:49:14;;;;;;;4.50;2.80;;;;;;;23.35;43.57;99323.63;4989140;28;20278;-74
2021/10/03 06:51:43;;;;;;;5.72;3.03;;;;;;;23.33;43.55;99348.75;4991154;28;20046;-74
2021/10/03 06:54:10;;;;;;;4.82;3.00;;;;;;;23.34;43.88;99335.75;4987430;28;20050;-74
2021/10/03 06:56:37;;;;;;;5.15;3.00;;;;;;;23.35;43.96;99348.53;4972827;28;20132;-74
2021/10/03 06:59:04;;;;;;;5.30;3.00;;;;;;;23.31;43.82;99331.50;4987386;28;20050;-74
2021/10/03 07:01:31;;;;;;;4.40;2.72;;;;;;;23.32;44.13;99340.66;4986037;28;20054;-74
2021/10/03 07:03:58;;;;;;;5.05;2.88;;;;;;;23.32;43.86;99341.50;4988441;28;20714;-76
2021/10/03 07:06:24;;;;;;;4.32;2.55;;;;;;;23.32;43.80;99349.81;4986559;28;20448;-75
2021/10/03 07:08:51;;;;;;;3.97;2.60;;;;;;;23.31;43.83;99350.88;4990692;28;20069;-75
2021/10/03 07:11:19;;;;;;;5.30;3.22;;;;;;;23.32;44.09;99354.50;4985923;28;20054;-75
2021/10/03 07:13:46;;;;;;;5.30;2.90;;;;;;;23.30;43.99;99354.75;4989882;28;20085;-73
2021/10/03 07:16:13;;;;;;;5.65;2.75;;;;;;;23.29;44.09;99364.13;4991559;28;20047;-73
2021/10/03 07:18:40;;;;;;;4.68;3.00;;;;;;;23.29;43.92;99363.28;4990962;28;20081;-73
2021/10/03 07:21:06;;;;;;;5.22;2.95;;;;;;;23.29;44.27;99366.06;4989552;28;20058;-72
2021/10/03 07:23:33;;;;;;;4.57;3.25;;;;;;;23.28;44.40;99369.88;4985996;28;20660;-73
2021/10/03 07:25:59;;;;;;;4.82;2.85;;;;;;;23.28;44.55;99373.50;4986305;28;20476;-73
2021/10/03 07:28:26;;;;;;;4.50;3.20;;;;;;;23.29;44.53;99374.38;4987902;28;20042;-73
2021/10/03 07:30:53;;;;;;;4.50;2.80;;;;;;;23.27;44.67;99363.50;4987923;28;20667;-72
2021/10/03 07:33:20;;;;;;;5.50;2.88;;;;;;;23.27;44.31;99379.25;4986368;28;20481;-75
2021/10/03 07:35:47;;;;;;;4.43;2.58;;;;;;;23.27;44.60;99370.94;4987880;28;20053;-73
2021/10/03 07:38:14;;;;;;;4.50;2.92;;;;;;;23.26;44.67;99383.09;4988522;28;20133;-73
2021/10/03 07:40:43;;;;;;;5.07;2.80;;;;;;;23.27;44.80;99368.19;4984392;28;20171;-76
2021/10/03 07:43:11;;;;;;;4.13;2.72;;;;;;;23.27;44.67;99371.81;4989374;28;20077;-76
2021/10/03 07:45:37;;;;;;;6.18;3.10;;;;;;;23.26;44.54;99372.88;4986894;28;20054;-73
2021/10/03 07:48:04;;;;;;;4.50;2.80;;;;;;;23.25;44.88;99381.38;4988347;28;20106;-73
2021/10/03 07:50:31;;;;;;;5.13;3.10;;;;;;;23.23;44.51;99378.84;4973852;28;20058;-74
2021/10/03 07:52:58;;;;;;;4.53;2.95;;;;;;;23.21;45.11;99394.84;4967938;28;20125;-74
2021/10/03 07:55:28;;;;;;;4.93;2.78;;;;;;;23.21;45.04;99372.69;4972232;28;20150;-74
2021/10/03 07:57:59;;;;;;;4.68;2.95;;;;;;;23.21;45.31;99377.38;4988343;28;20053;-75
2021/10/03 08:00:25;;;;;;;4.18;2.80;;;;;;;23.18;44.83;99375.91;4987932;28;20548;-76
2021/10/03 08:02:52;;;;;;;5.13;2.83;;;;;;;23.17;45.35;99373.34;4985085;28;20054;-73
2021/10/03 08:05:19;;;;;;;4.72;2.67;;;;;;;23.15;44.93;99379.09;4983657;28;20101;-73
2021/10/03 08:07:46;;;;;;;4.82;2.70;;;;;;;23.14;45.53;99380.19;4985733;28;20080;-72
2021/10/03 08:10:13;;;;;;;6.13;2.60;;;;;;;23.14;44.89;99381.00;4988178;28;20048;-73
2021/10/03 08:12:40;;;;;;;4.30;2.70;;;;;;;23.12;45.40;99385.09;4989043;28;20062;-73
2021/10/03 08:15:07;;;;;;;6.03;2.63;;;;;;;23.10;45.30;99385.31;4989358;28;20137;-73
2021/10/03 08:17:34;;;;;;;4.05;2.60;;;;;;;23.10;45.29;99371.44;4994746;28;20560;-76
2021/10/03 08:20:01;;;;;;;4.60;2.78;;;;;;;23.09;45.61;99374.44;4982984;28;20498;-73
2021/10/03 08:22:27;;;;;;;4.38;2.78;;;;;;;23.09;45.38;99368.91;4968843;28;20070;-74
2021/10/03 08:24:54;;;;;;;5.22;3.15;;;;;;;23.08;45.51;99364.44;4980396;28;20100;-75
2021/10/03 08:27:20;;;;;;;4.60;2.78;;;;;;;23.05;45.34;99379.59;4987674;28;20250;-75
2021/10/03 08:29:47;;;;;;;4.68;2.80;;;;;;;23.06;45.81;99374.91;4987823;28;20529;-75
2021/10/03 08:32:14;;;;;;;4.47;2.90;;;;;;;23.02;45.37;99376.38;4988923;28;20073;-74
2021/10/03 08:34:40;;;;;;;5.10;2.80;;;;;;;23.01;46.00;99371.91;4989680;28;20053;-73
2021/10/03 08:37:07;;;;;;;5.03;2.97;;;;;;;23.00;45.93;99371.06;4985053;28;20046;-74
2021/10/03 08:39:34;;;;;;;5.95;3.17;;;;;;;22.99;46.07;99374.03;4973857;28;20058;-74
2021/10/03 08:42:03;;;;;;;4.55;2.78;;;;;;;23.01;45.93;99385.75;4986049;28;20092;-74
2021/10/03 08:44:31;;;;;;;4.35;2.80;;;;;;;22.99;45.71;99377.66;4988498;28;20109;-74
2021/10/03 08:46:58;;;;;;;4.45;2.95;;;;;;;22.98;46.07;99381.50;4986281;28;20069;-73
2021/10/03 08:49:29;;;;;;;3.85;2.53;;;;;;;22.99;45.93;99376.81;4982618;28;20401;-74
2021/10/03 08:51:55;;;;;;;4.13;2.63;;;;;;;22.98;45.89;99378.72;4987069;28;20133;-75
2021/10/03 08:54:23;;;;;;;4.28;2.60;;;;;;;22.99;45.92;99379.56;4994276;28;20050;-74
2021/10/03 08:56:50;;;;;;;5.68;2.90;;;;;;;22.99;45.98;99377.66;4967497;28;20055;-74
2021/10/03 08:59:17;;;;;;;4.18;2.85;;;;;;;22.99;46.01;99368.50;4985949;28;20144;-73
2021/10/03 09:02:06;;;;;;;5.40;2.83;;;;;;;23.00;46.17;99373.81;4989202;28;20096;-73
2021/10/03 09:04:37;;;;;;;4.95;3.00;;;;;;;23.00;46.41;99379.38;4987353;28;20767;-73
2021/10/03 09:07:10;;;;;;;4.15;2.45;;;;;;;23.03;46.59;99391.94;4988112;28;20058;-73
2021/10/03 09:09:49;;;;;;;;;;;;;;;22.74;46.80;99390.50;4988228;28;20432;-73
2021/10/03 09:12:30;;;;;;;4.60;2.40;;;;;;;23.00;46.79;99384.06;4989992;28;20308;-73
2021/10/03 09:14:58;;;;;;;4.05;2.63;;;;;;;22.99;46.24;99393.41;4987667;28;20050;-73
2021/10/03 09:17:27;;;;;;;4.25;2.72;;;;;;;22.99;46.03;99385.97;4993186;28;20477;-73
2021/10/03 09:20:19;;;;;;;4.15;2.75;;;;;;;22.99;46.68;99385.97;4987034;28;20050;-73
2021/10/03 09:23:03;;;;;;;3.87;2.40;;;;;;;22.99;46.52;99383.19;4992932;28;20078;-74
2021/10/03 09:25:37;;;;;;;5.22;2.72;;;;;;;23.01;46.80;99386.59;4992271;28;20313;-73
2021/10/03 09:28:08;;;;;;;4.38;2.33;;;;;;;23.04;46.65;99390.88;4990881;28;20140;-73
2021/10/03 09:30:50;;;;;;;3.80;2.47;;;;;;;23.02;46.45;99382.78;4991792;28;20046;-73
2021/10/03 09:33:17;;;;;;;4.30;2.78;;;;;;;22.98;46.50;99375.97;4992168;28;20078;-73
2021/10/03 09:35:55;;;;;;;4.22;2.60;;;;;;;23.05;46.39;99374.03;4986495;28;20046;-74
2021/10/03 09:38:21;;;;;;;4.10;2.60;;;;;;;23.02;46.35;99382.78;4992780;28;20042;-74
2021/10/03 09:41:06;;;;;;;4.57;2.53;;;;;;;23.05;46.30;99382.34;4992119;28;20074;-73
2021/10/03 09:43:54;;;;;;;3.95;2.53;;;;;;;23.07;46.86;99402.34;4997277;28;20623;-73
2021/10/03 09:46:40;;;;;;;5.53;2.90;;;;;;;23.06;46.68;99392.31;4987007;28;20685;-74
2021/10/03 09:49:17;;;;;;;5.90;3.17;;;;;;;23.09;46.81;99389.13;4986717;28;20058;-74
2021/10/03 09:51:52;;;;;;;4.13;2.40;;;;;;;23.11;46.84;99406.38;4990737;28;20058;-73
2021/10/03 09:54:20;;;;;;;4.35;2.35;;;;;;;23.11;46.29;99402.75;5008436;28;20054;-74
2021/10/03 09:56:48;;;;;;;5.90;2.83;;;;;;;23.12;46.23;99401.69;4986990;28;20647;-75
2021/10/03 09:59:14;;;;;;;4.10;2.65;;;;;;;23.14;46.30;99396.81;4987462;28;20054;-74
2021/10/03 10:01:46;;;;;;;5.95;2.60;;;;;;;23.17;46.78;99395.50;4984386;28;20124;-74
2021/10/03 10:04:15;;;;;;;4.95;2.97;;;;;;;23.19;46.71;99396.13;4989748;28;20054;-75
2021/10/03 10:06:45;;;;;;;4.60;2.85;;;;;;;23.19;46.60;99393.34;4990350;28;20521;-74
2021/10/03 10:09:16;;;;;;;4.05;2.70;;;;;;;23.22;46.18;99391.00;4977831;28;20085;-75
2021/10/03 10:11:49;;;;;;;4.13;2.45;;;;;;;23.26;46.40;99395.03;4972413;28;20375;-75
2021/10/03 10:14:18;;;;;;;4.15;2.45;;;;;;;23.26;46.40;99396.94;4988647;28;20070;-74
2021/10/03 10:16:49;;;;;;;4.70;2.70;;;;;;;23.27;46.54;99391.19;4991662;28;20046;-74
2021/10/03 10:19:30;;;;;;;3.80;2.50;;;;;;;23.31;46.54;99391.59;4989502;28;20058;-73
2021/10/03 10:22:11;;;;;;;4.55;2.67;;;;;;;23.31;46.43;99384.13;4990493;28;20046;-74
2021/10/03 10:24:47;;;;;;;4.68;2.63;;;;;;;23.32;46.18;99404.38;4988985;28;20128;-74
2021/10/03 10:27:29;;;;;;;4.55;2.42;;;;;;;23.37;46.31;99393.50;4985661;28;20054;-74
2021/10/03 10:30:00;;;;;;;4.35;2.75;;;;;;;23.33;46.61;99406.06;4986689;28;20101;-75
2021/10/03 10:32:29;;;;;;;5.78;2.80;;;;;;;23.38;45.90;99404.34;4990654;28;20105;-75
2021/10/03 10:35:11;;;;;;;3.67;2.53;;;;;;;23.42;46.17;99401.97;4985759;28;20050;-75
2021/10/03 10:37:49;;;;;;;4.47;2.78;;;;;;;23.43;46.34;99421.16;4989774;28;20508;-74
2021/10/03 10:40:22;;;;;;;4.10;2.80;;;;;;;23.45;46.27;99418.16;4986961;28;20132;-74
2021/10/03 10:42:52;;;;;;;;;;;;;;;23.17;46.50;99404.66;4973436;28;20469;-74
2021/10/03 10:45:28;;;;;;;4.40;2.55;;;;;;;23.44;46.46;99405.38;4986607;28;20328;-74
2021/10/03 10:48:06;;;;;;;4.55;2.67;;;;;;;23.49;45.71;99411.13;4985906;28;20050;-74
2021/10/03 10:50:33;;;;;;;4.47;2.80;;;;;;;23.48;46.14;99413.06;4983483;28;20054;-74
2021/10/03 10:53:16;;;;;;;3.95;2.72;;;;;;;23.52;45.93;99402.41;4971234;28;20050;-74
2021/10/03 10:56:09;;;;;;;4.20;2.78;;;;;;;23.52;46.02;99410.69;4983363;28;20587;-74
2021/10/03 10:58:55;;;;;;;;;;;;;;;23.27;46.54;99398.66;4980719;28;20082;-75
2021/10/03 11:01:31;;;;;;;4.15;2.55;;;;;;;23.56;45.82;99402.78;4982064;28;19976;-73
2021/10/03 11:03:59;;;;;;;4.85;2.65;;;;;;;23.56;45.98;99403.63;4988730;28;20046;-72
2021/10/03 11:06:26;;;;;;;4.05;2.63;;;;;;;23.60;45.70;99406.81;4989771;28;20046;-72
2021/10/03 11:08:58;;;;;;;4.25;2.55;;;;;;;23.64;45.78;99410.84;4989873;28;20057;-72
2021/10/03 11:11:34;;;;;;;;;;;;;;;23.37;46.22;99393.50;4972204;28;20108;-72
2021/10/03 11:14:06;;;;;;;4.05;2.60;;;;;;;23.63;45.92;99403.63;4985568;28;20437;-73
2021/10/03 11:16:36;;;;;;;;;;;;;;;23.40;46.59;99404.09;4990060;28;20412;-72
2021/10/03 11:19:21;;;;;;;4.20;2.40;;;;;;;23.67;45.56;99397.41;4988030;28;19980;-73
2021/10/03 11:22:00;;;;;;;4.35;2.60;;;;;;;23.73;45.67;99406.72;4988806;28;20038;-73
2021/10/03 11:24:34;;;;;;;3.47;2.20;;;;;;;23.73;45.65;99406.72;4980000;28;20504;-72
2021/10/03 11:27:03;;;;;;;4.15;2.65;;;;;;;23.76;45.57;99429.31;4986405;28;20054;-72
2021/10/03 11:29:35;;;;;;;4.13;2.63;;;;;;;23.76;45.87;99407.16;4967576;28;20073;-73
2021/10/03 11:32:06;;;;;;;4.30;2.78;;;;;;;23.74;45.39;99411.22;4991119;28;20081;-72
2021/10/03 11:34:42;;;;;;;4.20;2.80;;;;;;;23.79;45.38;99408.63;4992211;28;20069;-72
2021/10/03 11:37:30;;;;;;;4.63;2.70;;;;;;;23.81;45.42;99418.41;4987735;28;20050;-72
2021/10/03 11:40:06;;;;;;;4.32;2.67;;;;;;;23.81;45.47;99410.09;4988238;28;20072;-73
2021/10/03 11:42:43;;;;;;;4.53;3.05;;;;;;;23.81;45.19;99432.25;4983832;28;20104;-73